PWSweather.com
Personal Weather Stations
Station Observations
WAREHAM1
West Wareham, MA 02576

West Wareham, MA 02576

Lat: 41.7961059, Lon: -70.775612

Elevation: 88

Station Type: Davis Vantage Vue

http://www.gateway2capecod.com

High Low Average
Temperature 46.8°F8.2°C 46.2°F7.9°C 46.5°F8.1°C
Dew Point 35.2°F1.8°C 34.3°F1.3°C 34.8°F1.6°C
Winds 6.5 mph 10.5 kmh 3.1 mph 5.0 kmh 4.0 mph NW6.4 kmh NW
Wind Gusts 14.0 mph22.5 kmh 6.0 mph9.7 kmh 9.0 mph14.5 kmh
Humidity 64% 63% 64%
Pressure 29.65 in1004.1 mb 29.64 in1003.7 mb -
Precipitation 0.00 in0.0 mm - -
Hour Temp Dew Point Humidity Winds Wind Gusts Pressure Precip Precip Rate Daily Precip Total
12:00 AM 47.5°F8.6°C 35.5°F1.9°C 63% 4.9 mph WNW7.9 kmh WNW 7.0 mph11.3 kmh 29.64 in1003.7 mb 0.00 in0.0 mm 0.00 in/hr0.0 mm/hr 0.00 in0.0 mm
12:10 AM 47.1°F8.4°C 35.5°F1.9°C 64% 2.0 mph W3.2 kmh W 3.0 mph4.8 kmh 29.64 in1003.7 mb 0.00 in0.0 mm 0.00 in/hr0.0 mm/hr 0.00 in0.0 mm
12:20 AM 46.9°F8.3°C 35.7°F2.1°C 65% 2.5 mph W4.0 kmh W 13.0 mph20.9 kmh 29.65 in1004.1 mb 0.00 in0.0 mm 0.00 in/hr0.0 mm/hr 0.00 in0.0 mm
12:30 AM 46.9°F8.3°C 35.4°F1.9°C 64% 6.1 mph WNW9.8 kmh WNW 11.0 mph17.7 kmh 29.64 in1003.7 mb 0.00 in0.0 mm 0.00 in/hr0.0 mm/hr 0.00 in0.0 mm
12:40 AM 46.9°F8.3°C 35.0°F1.7°C 63% 6.6 mph NW10.6 kmh NW 9.0 mph14.5 kmh 29.64 in1003.7 mb 0.00 in0.0 mm 0.00 in/hr0.0 mm/hr 0.00 in0.0 mm
12:50 AM 46.9°F8.3°C 35.0°F1.7°C 63% 6.4 mph NW10.3 kmh NW 11.0 mph17.7 kmh 29.65 in1004.1 mb 0.00 in0.0 mm 0.00 in/hr0.0 mm/hr 0.00 in0.0 mm
01:00 AM 46.8°F8.2°C 35.2°F1.8°C 64% 3.1 mph WNW5.0 kmh WNW 6.0 mph9.7 kmh 29.65 in1004.1 mb 0.00 in0.0 mm 0.00 in/hr0.0 mm/hr 0.00 in0.0 mm
01:10 AM 46.6°F8.1°C 35.1°F1.7°C 64% 3.1 mph NNW5.0 kmh NNW 9.0 mph14.5 kmh 29.65 in1004.1 mb 0.00 in0.0 mm 0.00 in/hr0.0 mm/hr 0.00 in0.0 mm
01:20 AM 46.5°F8.1°C 34.5°F1.4°C 63% 3.4 mph N5.5 kmh N 6.0 mph9.7 kmh 29.65 in1004.1 mb 0.00 in0.0 mm 0.00 in/hr0.0 mm/hr 0.00 in0.0 mm
01:30 AM 46.2°F7.9°C 34.3°F1.3°C 63% 6.5 mph W10.5 kmh W 14.0 mph22.5 kmh 29.64 in1003.7 mb 0.00 in0.0 mm 0.00 in/hr0.0 mm/hr 0.00 in0.0 mm
01:40 AM 45.8°F7.7°C 34.3°F1.3°C 64% 3.3 mph NNW5.3 kmh NNW 11.0 mph17.7 kmh 29.64 in1003.7 mb 0.00 in0.0 mm 0.00 in/hr0.0 mm/hr 0.00 in0.0 mm
01:50 AM 45.7°F7.6°C 33.8°F1.0°C 63% 2.8 mph W4.5 kmh W 4.0 mph6.4 kmh 29.64 in1003.7 mb 0.00 in0.0 mm 0.00 in/hr0.0 mm/hr 0.00 in0.0 mm
02:01 AM 45.4°F7.4°C 33.5°F0.8°C 63% 4.1 mph NNE6.6 kmh NNE 11.0 mph17.7 kmh 29.64 in1003.7 mb 0.00 in0.0 mm 0.00 in/hr0.0 mm/hr 0.00 in0.0 mm
02:10 AM 45.5°F7.5°C 33.2°F0.7°C 62% 7.1 mph WSW11.4 kmh WSW 12.0 mph19.3 kmh 29.64 in1003.7 mb 0.00 in0.0 mm 0.00 in/hr0.0 mm/hr 0.00 in0.0 mm
02:20 AM 45.4°F7.4°C 33.2°F0.7°C 62% 3.5 mph E5.6 kmh E 8.0 mph12.9 kmh 29.64 in1003.7 mb 0.00 in0.0 mm 0.00 in/hr0.0 mm/hr 0.00 in0.0 mm
02:30 AM 45.3°F7.4°C 33.0°F0.6°C 62% 2.4 mph WSW3.9 kmh WSW 4.0 mph6.4 kmh 29.64 in1003.7 mb 0.00 in0.0 mm 0.00 in/hr0.0 mm/hr 0.00 in0.0 mm
02:40 AM 45.0°F7.2°C 33.2°F0.7°C 63% 3.5 mph W5.6 kmh W 8.0 mph12.9 kmh 29.64 in1003.7 mb 0.00 in0.0 mm 0.00 in/hr0.0 mm/hr 0.00 in0.0 mm
02:50 AM 45.1°F7.3°C 32.8°F0.4°C 62% 3.5 mph NW5.6 kmh NW 6.0 mph9.7 kmh 29.64 in1003.7 mb 0.00 in0.0 mm 0.00 in/hr0.0 mm/hr 0.00 in0.0 mm
03:01 AM 45.1°F7.3°C 32.5°F0.3°C 61% 4.9 mph NW7.9 kmh NW 6.0 mph9.7 kmh 29.64 in1003.7 mb 0.00 in0.0 mm 0.00 in/hr0.0 mm/hr 0.00 in0.0 mm
03:10 AM 45.1°F7.3°C 32.4°F0.2°C 61% 3.2 mph NW5.1 kmh NW 5.0 mph8.0 kmh 29.64 in1003.7 mb 0.00 in0.0 mm 0.00 in/hr0.0 mm/hr 0.00 in0.0 mm
03:20 AM 45.1°F7.3°C 32.0°F0.0°C 60% 5.5 mph NW8.9 kmh NW 10.0 mph16.1 kmh 29.64 in1003.7 mb 0.00 in0.0 mm 0.00 in/hr0.0 mm/hr 0.00 in0.0 mm
03:30 AM 45.0°F7.2°C 31.9°F-0.1°C 60% 4.0 mph NNW6.4 kmh NNW 5.0 mph8.0 kmh 29.64 in1003.7 mb 0.00 in0.0 mm 0.00 in/hr0.0 mm/hr 0.00 in0.0 mm
03:40 AM 44.7°F7.1°C 31.7°F-0.2°C 60% 1.7 mph W2.7 kmh W 5.0 mph8.0 kmh 29.64 in1003.7 mb 0.00 in0.0 mm 0.00 in/hr0.0 mm/hr 0.00 in0.0 mm
03:50 AM 44.5°F6.9°C 31.5°F-0.3°C 60% 3.2 mph WNW5.1 kmh WNW 10.0 mph16.1 kmh 29.64 in1003.7 mb 0.00 in0.0 mm 0.00 in/hr0.0 mm/hr 0.00 in0.0 mm
04:00 AM 44.4°F6.9°C 31.4°F-0.3°C 60% 3.1 mph NNW5.0 kmh NNW 6.0 mph9.7 kmh 29.64 in1003.7 mb 0.00 in0.0 mm 0.00 in/hr0.0 mm/hr 0.00 in0.0 mm
04:10 AM 44.2°F6.8°C 31.2°F-0.4°C 60% 4.0 mph WSW6.4 kmh WSW 9.0 mph14.5 kmh 29.64 in1003.7 mb 0.00 in0.0 mm 0.00 in/hr0.0 mm/hr 0.00 in0.0 mm
04:20 AM 43.9°F6.6°C 30.9°F-0.6°C 60% 1.9 mph W3.1 kmh W 5.0 mph8.0 kmh 29.65 in1004.1 mb 0.00 in0.0 mm 0.00 in/hr0.0 mm/hr 0.00 in0.0 mm
04:30 AM 43.7°F6.5°C 30.7°F-0.7°C 60% 4.4 mph NNW7.1 kmh NNW 12.0 mph19.3 kmh 29.65 in1004.1 mb 0.00 in0.0 mm 0.00 in/hr0.0 mm/hr 0.00 in0.0 mm
04:40 AM 43.5°F6.4°C 30.1°F-1.1°C 59% 4.1 mph W6.6 kmh W 10.0 mph16.1 kmh 29.65 in1004.1 mb 0.00 in0.0 mm 0.00 in/hr0.0 mm/hr 0.00 in0.0 mm
04:50 AM 43.3°F6.3°C 30.3°F-0.9°C 60% 3.3 mph NW5.3 kmh NW 7.0 mph11.3 kmh 29.66 in1004.4 mb 0.00 in0.0 mm 0.00 in/hr0.0 mm/hr 0.00 in0.0 mm
05:01 AM 43.1°F6.2°C 29.7°F-1.3°C 59% 4.4 mph W7.1 kmh W 8.0 mph12.9 kmh 29.66 in1004.4 mb 0.00 in0.0 mm 0.00 in/hr0.0 mm/hr 0.00 in0.0 mm
05:10 AM 42.9°F6.1°C 29.5°F-1.4°C 59% 6.4 mph N10.3 kmh N 14.0 mph22.5 kmh 29.66 in1004.4 mb 0.00 in0.0 mm 0.00 in/hr0.0 mm/hr 0.00 in0.0 mm
05:20 AM 42.8°F6.0°C 29.0°F-1.7°C 58% 4.1 mph WNW6.6 kmh WNW 12.0 mph19.3 kmh 29.67 in1004.7 mb 0.00 in0.0 mm 0.00 in/hr0.0 mm/hr 0.00 in0.0 mm
05:30 AM 42.6°F5.9°C 28.4°F-2.0°C 57% 6.5 mph NW10.5 kmh NW 11.0 mph17.7 kmh 29.67 in1004.7 mb 0.00 in0.0 mm 0.00 in/hr0.0 mm/hr 0.00 in0.0 mm
05:40 AM 42.6°F5.9°C 28.4°F-2.0°C 57% 3.1 mph WNW5.0 kmh WNW 9.0 mph14.5 kmh 29.68 in1005.1 mb 0.00 in0.0 mm 0.00 in/hr0.0 mm/hr 0.00 in0.0 mm
05:50 AM 42.4°F5.8°C 27.8°F-2.3°C 56% 2.2 mph WSW3.5 kmh WSW 11.0 mph17.7 kmh 29.68 in1005.1 mb 0.00 in0.0 mm 0.00 in/hr0.0 mm/hr 0.00 in0.0 mm
06:01 AM 42.2°F5.7°C 27.2°F-2.7°C 55% 3.2 mph NW5.1 kmh NW 8.0 mph12.9 kmh 29.68 in1005.1 mb 0.00 in0.0 mm 0.00 in/hr0.0 mm/hr 0.00 in0.0 mm
06:10 AM 42.0°F5.6°C 26.5°F-3.1°C 54% 4.7 mph WNW7.6 kmh WNW 6.0 mph9.7 kmh 29.69 in1005.4 mb 0.00 in0.0 mm 0.00 in/hr0.0 mm/hr 0.00 in0.0 mm
06:20 AM 42.0°F5.6°C 26.5°F-3.1°C 54% 3.4 mph WNW5.5 kmh WNW 5.0 mph8.0 kmh 29.69 in1005.4 mb 0.00 in0.0 mm 0.00 in/hr0.0 mm/hr 0.00 in0.0 mm
06:30 AM 42.1°F5.6°C 25.7°F-3.5°C 52% 3.3 mph W5.3 kmh W 6.0 mph9.7 kmh 29.69 in1005.4 mb 0.00 in0.0 mm 0.00 in/hr0.0 mm/hr 0.00 in0.0 mm
06:40 AM 42.4°F5.8°C 25.5°F-3.6°C 51% 3.0 mph WSW4.8 kmh WSW 8.0 mph12.9 kmh 29.69 in1005.4 mb 0.00 in0.0 mm 0.00 in/hr0.0 mm/hr 0.00 in0.0 mm
06:50 AM 42.6°F5.9°C 25.3°F-3.7°C 50% 4.5 mph W7.2 kmh W 4.0 mph6.4 kmh 29.70 in1005.8 mb 0.00 in0.0 mm 0.00 in/hr0.0 mm/hr 0.00 in0.0 mm
07:01 AM 42.8°F6.0°C 24.4°F-4.2°C 48% 6.3 mph W10.1 kmh W 13.0 mph20.9 kmh 29.70 in1005.8 mb 0.00 in0.0 mm 0.00 in/hr0.0 mm/hr 0.00 in0.0 mm
07:10 AM 43.0°F6.1°C 24.6°F-4.1°C 48% 4.2 mph WNW6.8 kmh WNW 11.0 mph17.7 kmh 29.70 in1005.8 mb 0.00 in0.0 mm 0.00 in/hr0.0 mm/hr 0.00 in0.0 mm
07:20 AM 43.2°F6.2°C 24.3°F-4.3°C 47% 4.1 mph NW6.6 kmh NW 9.0 mph14.5 kmh 29.70 in1005.8 mb 0.00 in0.0 mm 0.00 in/hr0.0 mm/hr 0.00 in0.0 mm
07:30 AM 43.5°F6.4°C 23.5°F-4.7°C 45% 5.9 mph WSW9.5 kmh WSW 8.0 mph12.9 kmh 29.71 in1006.1 mb 0.00 in0.0 mm 0.00 in/hr0.0 mm/hr 0.00 in0.0 mm
07:40 AM 43.9°F6.6°C 23.4°F-4.8°C 44% 5.9 mph WSW9.5 kmh WSW 9.0 mph14.5 kmh 29.70 in1005.8 mb 0.00 in0.0 mm 0.00 in/hr0.0 mm/hr 0.00 in0.0 mm
07:50 AM 44.0°F6.7°C 22.4°F-5.3°C 42% 6.5 mph WSW10.5 kmh WSW 7.0 mph11.3 kmh 29.70 in1005.8 mb 0.00 in0.0 mm 0.00 in/hr0.0 mm/hr 0.00 in0.0 mm
08:01 AM 44.4°F6.9°C 22.7°F-5.2°C 42% 6.7 mph NW10.8 kmh NW 13.0 mph20.9 kmh 29.71 in1006.1 mb 0.00 in0.0 mm 0.00 in/hr0.0 mm/hr 0.00 in0.0 mm
08:10 AM 44.5°F6.9°C 22.8°F-5.1°C 42% 4.2 mph WNW6.8 kmh WNW 7.0 mph11.3 kmh 29.71 in1006.1 mb 0.00 in0.0 mm 0.00 in/hr0.0 mm/hr 0.00 in0.0 mm
08:20 AM 45.0°F7.2°C 23.3°F-4.8°C 42% 4.1 mph NNW6.6 kmh NNW 6.0 mph9.7 kmh 29.70 in1005.8 mb 0.00 in0.0 mm 0.00 in/hr0.0 mm/hr 0.00 in0.0 mm
08:30 AM 45.5°F7.5°C 23.7°F-4.6°C 42% 3.9 mph NW6.3 kmh NW 6.0 mph9.7 kmh 29.71 in1006.1 mb 0.00 in0.0 mm 0.00 in/hr0.0 mm/hr 0.00 in0.0 mm
08:40 AM 45.8°F7.7°C 22.2°F-5.4°C 39% 6.7 mph WNW10.8 kmh WNW 11.0 mph17.7 kmh 29.71 in1006.1 mb 0.00 in0.0 mm 0.00 in/hr0.0 mm/hr 0.00 in0.0 mm
08:50 AM 45.8°F7.7°C 22.2°F-5.4°C 39% 4.2 mph NNW6.8 kmh NNW 11.0 mph17.7 kmh 29.71 in1006.1 mb 0.00 in0.0 mm 0.00 in/hr0.0 mm/hr 0.00 in0.0 mm
09:01 AM 46.1°F7.8°C 21.9°F-5.6°C 38% 7.5 mph WNW12.1 kmh WNW 16.0 mph25.7 kmh 29.71 in1006.1 mb 0.00 in0.0 mm 0.00 in/hr0.0 mm/hr 0.00 in0.0 mm
09:11 AM 46.6°F8.1°C 22.3°F-5.4°C 38% 5.1 mph NE8.2 kmh NE 10.0 mph16.1 kmh 29.71 in1006.1 mb 0.00 in0.0 mm 0.00 in/hr0.0 mm/hr 0.00 in0.0 mm
09:20 AM 47.0°F8.3°C 22.7°F-5.2°C 38% 4.7 mph NE7.6 kmh NE 8.0 mph12.9 kmh 29.71 in1006.1 mb 0.00 in0.0 mm 0.00 in/hr0.0 mm/hr 0.00 in0.0 mm
09:30 AM 46.8°F8.2°C 21.2°F-6.0°C 36% 7.4 mph WNW11.9 kmh WNW 10.0 mph16.1 kmh 29.72 in1006.4 mb 0.00 in0.0 mm 0.00 in/hr0.0 mm/hr 0.00 in0.0 mm
09:40 AM 46.8°F8.2°C 20.6°F-6.3°C 35% 8.0 mph NW12.9 kmh NW 14.0 mph22.5 kmh 29.72 in1006.4 mb 0.00 in0.0 mm 0.00 in/hr0.0 mm/hr 0.00 in0.0 mm
09:50 AM 47.4°F8.6°C 21.0°F-6.1°C 35% 7.9 mph SW12.7 kmh SW 16.0 mph25.7 kmh 29.72 in1006.4 mb 0.00 in0.0 mm 0.00 in/hr0.0 mm/hr 0.00 in0.0 mm
10:01 AM 48.0°F8.9°C 21.6°F-5.8°C 35% 3.4 mph NW5.5 kmh NW 5.0 mph8.0 kmh 29.72 in1006.4 mb 0.00 in0.0 mm 0.00 in/hr0.0 mm/hr 0.00 in0.0 mm
10:12 AM 48.5°F9.2°C 22.7°F-5.2°C 36% 7.0 mph W11.3 kmh W 14.0 mph22.5 kmh 29.72 in1006.4 mb 0.00 in0.0 mm 0.00 in/hr0.0 mm/hr 0.00 in0.0 mm
10:20 AM 48.5°F9.2°C 22.7°F-5.2°C 36% 4.3 mph N6.9 kmh N 10.0 mph16.1 kmh 29.72 in1006.4 mb 0.00 in0.0 mm 0.00 in/hr0.0 mm/hr 0.00 in0.0 mm
10:30 AM 49.0°F9.4°C 23.2°F-4.9°C 36% 7.9 mph WNW12.7 kmh WNW 13.0 mph20.9 kmh 29.73 in1006.8 mb 0.00 in0.0 mm 0.00 in/hr0.0 mm/hr 0.00 in0.0 mm
10:40 AM 49.0°F9.4°C 23.2°F-4.9°C 36% 6.7 mph NNW10.8 kmh NNW 10.0 mph16.1 kmh 29.73 in1006.8 mb 0.00 in0.0 mm 0.00 in/hr0.0 mm/hr 0.00 in0.0 mm
10:50 AM 49.6°F9.8°C 26.2°F-3.2°C 40% 5.8 mph SW9.3 kmh SW 13.0 mph20.9 kmh 29.73 in1006.8 mb 0.00 in0.0 mm 0.00 in/hr0.0 mm/hr 0.00 in0.0 mm
11:02 AM 50.3°F10.2°C 25.0°F-3.9°C 37% 4.4 mph WNW7.1 kmh WNW 8.0 mph12.9 kmh 29.73 in1006.8 mb 0.00 in0.0 mm 0.00 in/hr0.0 mm/hr 0.00 in0.0 mm
11:13 AM 50.3°F10.2°C 25.6°F-3.6°C 38% 6.6 mph SW10.6 kmh SW 9.0 mph14.5 kmh 29.73 in1006.8 mb 0.00 in0.0 mm 0.00 in/hr0.0 mm/hr 0.00 in0.0 mm
11:20 AM 50.5°F10.3°C 25.8°F-3.4°C 38% 5.2 mph NE8.4 kmh NE 12.0 mph19.3 kmh 29.73 in1006.8 mb 0.00 in0.0 mm 0.00 in/hr0.0 mm/hr 0.00 in0.0 mm
11:30 AM 51.2°F10.7°C 26.4°F-3.1°C 38% 6.0 mph WNW9.7 kmh WNW 12.0 mph19.3 kmh 29.73 in1006.8 mb 0.00 in0.0 mm 0.00 in/hr0.0 mm/hr 0.00 in0.0 mm
11:40 AM 51.9°F11.1°C 27.7°F-2.4°C 39% 4.1 mph ENE6.6 kmh ENE 8.0 mph12.9 kmh 29.73 in1006.8 mb 0.00 in0.0 mm 0.00 in/hr0.0 mm/hr 0.00 in0.0 mm
11:50 AM 52.1°F11.2°C 27.2°F-2.7°C 38% 7.6 mph NNE12.2 kmh NNE 11.0 mph17.7 kmh 29.73 in1006.8 mb 0.00 in0.0 mm 0.00 in/hr0.0 mm/hr 0.00 in0.0 mm
12:01 PM 52.7°F11.5°C 27.8°F-2.3°C 38% 6.4 mph W10.3 kmh W 10.0 mph16.1 kmh 29.73 in1006.8 mb 0.00 in0.0 mm 0.00 in/hr0.0 mm/hr 0.00 in0.0 mm
12:14 PM 53.4°F11.9°C 29.0°F-1.7°C 39% 4.0 mph WNW6.4 kmh WNW 12.0 mph19.3 kmh 29.73 in1006.8 mb 0.00 in0.0 mm 0.00 in/hr0.0 mm/hr 0.00 in0.0 mm
12:20 PM 53.2°F11.8°C 28.2°F-2.1°C 38% 5.5 mph WNW8.9 kmh WNW 13.0 mph20.9 kmh 29.73 in1006.8 mb 0.00 in0.0 mm 0.00 in/hr0.0 mm/hr 0.00 in0.0 mm
12:30 PM 54.8°F12.7°C 30.3°F-0.9°C 39% 4.1 mph NE6.6 kmh NE 8.0 mph12.9 kmh 29.72 in1006.4 mb 0.00 in0.0 mm 0.00 in/hr0.0 mm/hr 0.00 in0.0 mm
12:40 PM 55.1°F12.8°C 28.6°F-1.9°C 36% 6.6 mph WNW10.6 kmh WNW 14.0 mph22.5 kmh 29.73 in1006.8 mb 0.00 in0.0 mm 0.00 in/hr0.0 mm/hr 0.00 in0.0 mm
12:50 PM 54.9°F12.7°C 28.4°F-2.0°C 36% 6.1 mph NW9.8 kmh NW 11.0 mph17.7 kmh 29.72 in1006.4 mb 0.00 in0.0 mm 0.00 in/hr0.0 mm/hr 0.00 in0.0 mm
01:01 PM 54.6°F12.6°C 27.5°F-2.5°C 35% 7.6 mph WNW12.2 kmh WNW 10.0 mph16.1 kmh 29.72 in1006.4 mb 0.00 in0.0 mm 0.00 in/hr0.0 mm/hr 0.00 in0.0 mm
01:15 PM 56.2°F13.4°C 30.2°F-1.0°C 37% 2.8 mph WSW4.5 kmh WSW 4.0 mph6.4 kmh 29.71 in1006.1 mb 0.00 in0.0 mm 0.00 in/hr0.0 mm/hr 0.00 in0.0 mm
01:20 PM 56.6°F13.7°C 28.5°F-1.9°C 34% 3.3 mph WSW5.3 kmh WSW 8.0 mph12.9 kmh 29.71 in1006.1 mb 0.00 in0.0 mm 0.00 in/hr0.0 mm/hr 0.00 in0.0 mm
01:30 PM 56.8°F13.8°C 28.7°F-1.8°C 34% 6.9 mph WNW11.1 kmh WNW 11.0 mph17.7 kmh 29.72 in1006.4 mb 0.00 in0.0 mm 0.00 in/hr0.0 mm/hr 0.00 in0.0 mm
01:40 PM 56.7°F13.7°C 30.0°F-1.1°C 36% 3.8 mph WNW6.1 kmh WNW 8.0 mph12.9 kmh 29.71 in1006.1 mb 0.00 in0.0 mm 0.00 in/hr0.0 mm/hr 0.00 in0.0 mm
01:50 PM 56.3°F13.5°C 27.5°F-2.5°C 33% 9.0 mph WNW14.5 kmh WNW 14.0 mph22.5 kmh 29.72 in1006.4 mb 0.00 in0.0 mm 0.00 in/hr0.0 mm/hr 0.00 in0.0 mm
02:01 PM 56.7°F13.7°C 28.6°F-1.9°C 34% 4.5 mph NW7.2 kmh NW 9.0 mph14.5 kmh 29.72 in1006.4 mb 0.00 in0.0 mm 0.00 in/hr0.0 mm/hr 0.00 in0.0 mm
02:16 PM 57.2°F14.0°C 28.3°F-2.1°C 33% 5.1 mph NE8.2 kmh NE 12.0 mph19.3 kmh 29.72 in1006.4 mb 0.00 in0.0 mm 0.00 in/hr0.0 mm/hr 0.00 in0.0 mm
02:20 PM 57.3°F14.1°C 28.5°F-1.9°C 33% 4.2 mph NNW6.8 kmh NNW 7.0 mph11.3 kmh 29.71 in1006.1 mb 0.00 in0.0 mm 0.00 in/hr0.0 mm/hr 0.00 in0.0 mm
02:30 PM 57.9°F14.4°C 28.9°F-1.7°C 33% 5.8 mph NW9.3 kmh NW 16.0 mph25.7 kmh 29.72 in1006.4 mb 0.00 in0.0 mm 0.00 in/hr0.0 mm/hr 0.00 in0.0 mm
02:40 PM 57.3°F14.1°C 27.7°F-2.4°C 32% 5.7 mph WNW9.2 kmh WNW 9.0 mph14.5 kmh 29.71 in1006.1 mb 0.00 in0.0 mm 0.00 in/hr0.0 mm/hr 0.00 in0.0 mm
02:50 PM 57.6°F14.2°C 27.1°F-2.7°C 31% 5.4 mph NE8.7 kmh NE 14.0 mph22.5 kmh 29.72 in1006.4 mb 0.00 in0.0 mm 0.00 in/hr0.0 mm/hr 0.00 in0.0 mm
03:01 PM 58.2°F14.6°C 28.5°F-1.9°C 32% 3.6 mph NNE5.8 kmh NNE 7.0 mph11.3 kmh 29.71 in1006.1 mb 0.00 in0.0 mm 0.00 in/hr0.0 mm/hr 0.00 in0.0 mm
03:17 PM 58.2°F14.6°C 27.7°F-2.4°C 31% 6.4 mph NNW10.3 kmh NNW 8.0 mph12.9 kmh 29.71 in1006.1 mb 0.00 in0.0 mm 0.00 in/hr0.0 mm/hr 0.00 in0.0 mm
03:20 PM 58.1°F14.5°C 27.6°F-2.4°C 31% 5.0 mph N8.0 kmh N 11.0 mph17.7 kmh 29.71 in1006.1 mb 0.00 in0.0 mm 0.00 in/hr0.0 mm/hr 0.00 in0.0 mm
03:30 PM 58.9°F14.9°C 28.3°F-2.1°C 31% 4.6 mph NE7.4 kmh NE 6.0 mph9.7 kmh 29.71 in1006.1 mb 0.00 in0.0 mm 0.00 in/hr0.0 mm/hr 0.00 in0.0 mm
03:40 PM 58.7°F14.8°C 27.3°F-2.6°C 30% 6.8 mph NW10.9 kmh NW 12.0 mph19.3 kmh 29.72 in1006.4 mb 0.00 in0.0 mm 0.00 in/hr0.0 mm/hr 0.00 in0.0 mm
03:50 PM 58.7°F14.8°C 27.3°F-2.6°C 30% 3.6 mph WNW5.8 kmh WNW 4.0 mph6.4 kmh 29.72 in1006.4 mb 0.00 in0.0 mm 0.00 in/hr0.0 mm/hr 0.00 in0.0 mm
04:01 PM 58.8°F14.9°C 28.2°F-2.1°C 31% 4.7 mph NW7.6 kmh NW 9.0 mph14.5 kmh 29.72 in1006.4 mb 0.00 in0.0 mm 0.00 in/hr0.0 mm/hr 0.00 in0.0 mm
04:18 PM 59.1°F15.1°C 27.7°F-2.4°C 30% 5.0 mph WNW8.0 kmh WNW 11.0 mph17.7 kmh 29.73 in1006.8 mb 0.00 in0.0 mm 0.00 in/hr0.0 mm/hr 0.00 in0.0 mm
04:20 PM 58.9°F14.9°C 26.6°F-3.0°C 29% 6.2 mph NNW10.0 kmh NNW 13.0 mph20.9 kmh 29.73 in1006.8 mb 0.00 in0.0 mm 0.00 in/hr0.0 mm/hr 0.00 in0.0 mm
04:30 PM 59.1°F15.1°C 27.7°F-2.4°C 30% 3.9 mph NNW6.3 kmh NNW 10.0 mph16.1 kmh 29.73 in1006.8 mb 0.00 in0.0 mm 0.00 in/hr0.0 mm/hr 0.00 in0.0 mm
04:40 PM 59.2°F15.1°C 26.9°F-2.8°C 29% 4.7 mph NW7.6 kmh NW 11.0 mph17.7 kmh 29.73 in1006.8 mb 0.00 in0.0 mm 0.00 in/hr0.0 mm/hr 0.00 in0.0 mm
04:50 PM 58.9°F14.9°C 26.7°F-2.9°C 29% 7.4 mph NNW11.9 kmh NNW 16.0 mph25.7 kmh 29.74 in1007.1 mb 0.00 in0.0 mm 0.00 in/hr0.0 mm/hr 0.00 in0.0 mm
05:02 PM 58.7°F14.8°C 26.5°F-3.1°C 29% 6.8 mph W10.9 kmh W 15.0 mph24.1 kmh 29.74 in1007.1 mb 0.00 in0.0 mm 0.00 in/hr0.0 mm/hr 0.00 in0.0 mm
05:19 PM 59.5°F15.3°C 28.0°F-2.2°C 30% 3.8 mph N6.1 kmh N 8.0 mph12.9 kmh 29.75 in1007.5 mb 0.00 in0.0 mm 0.00 in/hr0.0 mm/hr 0.00 in0.0 mm
05:20 PM 59.5°F15.3°C 28.0°F-2.2°C 30% 4.3 mph NNW6.9 kmh NNW 8.0 mph12.9 kmh 29.75 in1007.5 mb 0.00 in0.0 mm 0.00 in/hr0.0 mm/hr 0.00 in0.0 mm
05:30 PM 59.1°F15.1°C 27.6°F-2.4°C 30% 7.1 mph WNW11.4 kmh WNW 12.0 mph19.3 kmh 29.76 in1007.8 mb 0.00 in0.0 mm 0.00 in/hr0.0 mm/hr 0.00 in0.0 mm
05:40 PM 58.2°F14.6°C 27.7°F-2.4°C 31% 5.2 mph NNW8.4 kmh NNW 9.0 mph14.5 kmh 29.76 in1007.8 mb 0.00 in0.0 mm 0.00 in/hr0.0 mm/hr 0.00 in0.0 mm
06:03 PM 57.7°F14.3°C 28.0°F-2.2°C 32% 7.5 mph WNW12.1 kmh WNW 10.0 mph16.1 kmh 29.78 in1008.5 mb 0.00 in0.0 mm 0.00 in/hr0.0 mm/hr 0.00 in0.0 mm
06:14 PM 57.7°F14.3°C 28.8°F-1.8°C 33% 4.0 mph W6.4 kmh W 6.0 mph9.7 kmh 29.78 in1008.5 mb 0.00 in0.0 mm 0.00 in/hr0.0 mm/hr 0.00 in0.0 mm
06:30 PM 56.2°F13.4°C 28.8°F-1.8°C 35% 5.1 mph WNW8.2 kmh WNW 12.0 mph19.3 kmh 29.80 in1009.1 mb 0.00 in0.0 mm 0.00 in/hr0.0 mm/hr 0.00 in0.0 mm
06:40 PM 55.4°F13.0°C 28.2°F-2.1°C 35% 5.9 mph WNW9.5 kmh WNW 11.0 mph17.7 kmh 29.80 in1009.1 mb 0.00 in0.0 mm 0.00 in/hr0.0 mm/hr 0.00 in0.0 mm
06:50 PM 55.0°F12.8°C 28.5°F-1.9°C 36% 5.4 mph NW8.7 kmh NW 10.0 mph16.1 kmh 29.81 in1009.5 mb 0.00 in0.0 mm 0.00 in/hr0.0 mm/hr 0.00 in0.0 mm
07:04 PM 54.6°F12.6°C 28.8°F-1.8°C 37% 4.8 mph NW7.7 kmh NW 10.0 mph16.1 kmh 29.82 in1009.8 mb 0.00 in0.0 mm 0.00 in/hr0.0 mm/hr 0.00 in0.0 mm
07:23 PM 54.3°F12.4°C 28.6°F-1.9°C 37% 2.5 mph WSW4.0 kmh WSW 9.0 mph14.5 kmh 29.82 in1009.8 mb 0.00 in0.0 mm 0.00 in/hr0.0 mm/hr 0.00 in0.0 mm
07:30 PM 53.7°F12.1°C 28.7°F-1.8°C 38% 2.7 mph NW4.3 kmh NW 3.0 mph4.8 kmh 29.84 in1010.5 mb 0.00 in0.0 mm 0.00 in/hr0.0 mm/hr 0.00 in0.0 mm
07:40 PM 53.3°F11.8°C 28.9°F-1.7°C 39% 3.7 mph NNE6.0 kmh NNE 6.0 mph9.7 kmh 29.85 in1010.8 mb 0.00 in0.0 mm 0.00 in/hr0.0 mm/hr 0.00 in0.0 mm
07:50 PM 53.1°F11.7°C 28.7°F-1.8°C 39% 2.9 mph NW4.7 kmh NW 5.0 mph8.0 kmh 29.85 in1010.8 mb 0.00 in0.0 mm 0.00 in/hr0.0 mm/hr 0.00 in0.0 mm
08:03 PM 52.9°F11.6°C 28.0°F-2.2°C 38% 6.5 mph NW10.5 kmh NW 10.0 mph16.1 kmh 29.86 in1011.2 mb 0.00 in0.0 mm 0.00 in/hr0.0 mm/hr 0.00 in0.0 mm
08:22 PM 52.4°F11.3°C 28.8°F-1.8°C 40% 3.1 mph WSW5.0 kmh WSW 5.0 mph8.0 kmh 29.87 in1011.5 mb 0.00 in0.0 mm 0.00 in/hr0.0 mm/hr 0.00 in0.0 mm
08:30 PM 52.0°F11.1°C 29.0°F-1.7°C 41% 2.4 mph W3.9 kmh W 4.0 mph6.4 kmh 29.89 in1012.2 mb 0.00 in0.0 mm 0.00 in/hr0.0 mm/hr 0.00 in0.0 mm
08:40 PM 51.7°F10.9°C 29.3°F-1.5°C 42% 1.6 mph NW2.6 kmh NW 3.0 mph4.8 kmh 29.89 in1012.2 mb 0.00 in0.0 mm 0.00 in/hr0.0 mm/hr 0.00 in0.0 mm
08:50 PM 51.4°F10.8°C 29.0°F-1.7°C 42% 1.5 mph NW2.4 kmh NW 7.0 mph11.3 kmh 29.90 in1012.5 mb 0.00 in0.0 mm 0.00 in/hr0.0 mm/hr 0.00 in0.0 mm
09:01 PM 51.2°F10.7°C 29.5°F-1.4°C 43% 2.6 mph WNW4.2 kmh WNW 4.0 mph6.4 kmh 29.91 in1012.9 mb 0.00 in0.0 mm 0.00 in/hr0.0 mm/hr 0.00 in0.0 mm
09:21 PM 50.8°F10.4°C 29.6°F-1.3°C 44% 2.1 mph WNW3.4 kmh WNW 5.0 mph8.0 kmh 29.91 in1012.9 mb 0.00 in0.0 mm 0.00 in/hr0.0 mm/hr 0.00 in0.0 mm
09:30 PM 49.9°F9.9°C 29.9°F-1.2°C 46% Calm Calm 1.0 mph1.6 kmh 29.92 in1013.2 mb 0.00 in0.0 mm 0.00 in/hr0.0 mm/hr 0.00 in0.0 mm
09:40 PM 49.3°F9.6°C 30.4°F-0.9°C 48% 0.6 mph WSW1.0 kmh WSW 2.0 mph3.2 kmh 29.93 in1013.5 mb 0.00 in0.0 mm 0.00 in/hr0.0 mm/hr 0.00 in0.0 mm
09:50 PM 48.9°F9.4°C 30.1°F-1.1°C 48% 0.3 mph W0.5 kmh W 1.0 mph1.6 kmh 29.94 in1013.9 mb 0.00 in0.0 mm 0.00 in/hr0.0 mm/hr 0.00 in0.0 mm
10:00 PM 48.5°F9.2°C 30.2°F-1.0°C 49% 0.6 mph W1.0 kmh W 1.0 mph1.6 kmh 29.94 in1013.9 mb 0.00 in0.0 mm 0.00 in/hr0.0 mm/hr 0.00 in0.0 mm
10:21 PM 48.4°F9.1°C 30.1°F-1.1°C 49% 1.0 mph NW1.6 kmh NW 5.0 mph8.0 kmh 29.95 in1014.2 mb 0.00 in0.0 mm 0.00 in/hr0.0 mm/hr 0.00 in0.0 mm
10:30 PM 48.6°F9.2°C 29.8°F-1.2°C 48% 0.4 mph NW0.6 kmh NW 1.0 mph1.6 kmh 29.95 in1014.2 mb 0.00 in0.0 mm 0.00 in/hr0.0 mm/hr 0.00 in0.0 mm
10:40 PM 48.5°F9.2°C 30.2°F-1.0°C 49% 1.5 mph W2.4 kmh W 2.0 mph3.2 kmh 29.95 in1014.2 mb 0.00 in0.0 mm 0.00 in/hr0.0 mm/hr 0.00 in0.0 mm
10:50 PM 48.8°F9.3°C 30.0°F-1.1°C 48% 2.0 mph WNW3.2 kmh WNW 6.0 mph9.7 kmh 29.95 in1014.2 mb 0.00 in0.0 mm 0.00 in/hr0.0 mm/hr 0.00 in0.0 mm
11:00 PM 49.2°F9.6°C 30.3°F-0.9°C 48% 2.1 mph NW3.4 kmh NW 5.0 mph8.0 kmh 29.95 in1014.2 mb 0.00 in0.0 mm 0.00 in/hr0.0 mm/hr 0.00 in0.0 mm
11:10 PM 49.3°F9.6°C 29.9°F-1.2°C 47% 4.2 mph NW6.8 kmh NW 7.0 mph11.3 kmh 29.96 in1014.6 mb 0.00 in0.0 mm 0.00 in/hr0.0 mm/hr 0.00 in0.0 mm
11:20 PM 49.4°F9.7°C 30.5°F-0.8°C 48% 1.8 mph WNW2.9 kmh WNW 3.0 mph4.8 kmh 29.96 in1014.6 mb 0.00 in0.0 mm 0.00 in/hr0.0 mm/hr 0.00 in0.0 mm
11:30 PM 49.3°F9.6°C 30.4°F-0.9°C 48% 2.1 mph NNW3.4 kmh NNW 3.0 mph4.8 kmh 29.96 in1014.6 mb 0.00 in0.0 mm 0.00 in/hr0.0 mm/hr 0.00 in0.0 mm
11:40 PM 49.0°F9.4°C 30.7°F-0.7°C 49% 0.9 mph NW1.4 kmh NW 2.0 mph3.2 kmh 29.96 in1014.6 mb 0.00 in0.0 mm 0.00 in/hr0.0 mm/hr 0.00 in0.0 mm
11:50 PM 48.4°F9.1°C 30.6°F-0.8°C 50% Calm Calm -- 29.96 in1014.6 mb 0.00 in0.0 mm 0.00 in/hr0.0 mm/hr 0.00 in0.0 mm